Time;durP1;ratioP1;P1;durP2;ratioP2;P2;SDS_P1;SDS_P2;PMS_P1;PMS_P2;Temp;Humidity;BMP_temperature;BMP_pressure;BME280_temperature;BME280_humidity;BME280_pressure;Samples;Min_cycle;Max_cycle;Signal;HPM_P1;HPM_P2
2022/07/24 00:01:51;;;;;;;10.38;7.00;;;;;;;20.64;57.28;98352.44;4967457;28;20434;-83
2022/07/24 00:04:20;;;;;;;12.27;6.90;;;;;;;20.68;57.39;98347.78;4993495;28;20430;-83
2022/07/24 00:06:48;;;;;;;13.27;7.03;;;;;;;20.61;57.93;98347.63;4997101;28;20414;-82
2022/07/24 00:09:18;;;;;;;10.02;6.97;;;;;;;20.53;58.25;98352.25;4983467;28;20435;-82
2022/07/24 00:11:46;;;;;;;12.00;7.25;;;;;;;20.53;57.81;98352.25;4997615;28;20901;-82
2022/07/24 00:14:16;;;;;;;9.43;7.00;;;;;;;20.55;57.77;98349.09;5006911;28;20413;-83
2022/07/24 00:16:45;;;;;;;10.77;6.80;;;;;;;20.52;58.17;98345.13;5007398;28;20904;-82
2022/07/24 00:19:14;;;;;;;9.05;6.97;;;;;;;20.49;57.87;98350.56;4977113;28;20765;-82
2022/07/24 00:21:42;;;;;;;12.88;7.45;;;;;;;20.53;57.91;98346.72;5000805;28;20426;-82
2022/07/24 00:24:13;;;;;;;11.02;7.30;;;;;;;20.52;57.94;98349.84;5002620;28;20408;-82
2022/07/24 00:26:43;;;;;;;10.93;7.88;;;;;;;20.39;58.21;98352.72;4997883;28;20458;-82
2022/07/24 00:29:37;;;;;;;10.68;7.43;;;;;;;20.48;58.00;98349.00;4984461;28;20468;-84
2022/07/24 00:32:06;;;;;;;10.70;7.53;;;;;;;20.41;58.44;98350.41;4990623;28;20764;-86
2022/07/24 00:34:35;;;;;;;10.82;7.20;;;;;;;20.45;58.11;98347.72;4994602;28;20487;-84
2022/07/24 00:37:04;;;;;;;10.48;7.30;;;;;;;20.46;58.08;98356.81;4965977;28;20935;-83
2022/07/24 00:39:32;;;;;;;12.20;7.50;;;;;;;20.36;58.55;98355.44;4980712;28;20459;-82
2022/07/24 00:42:03;;;;;;;13.38;7.68;;;;;;;20.33;58.55;98354.19;4965894;28;20424;-83
2022/07/24 00:44:31;;;;;;;12.18;7.63;;;;;;;20.19;59.11;98351.19;4988781;28;20466;-83
2022/07/24 00:47:00;;;;;;;8.70;6.73;;;;;;;20.20;58.94;98338.19;4972316;28;20423;-83
2022/07/24 00:49:28;;;;;;;11.63;8.02;;;;;;;20.22;58.98;98347.69;4971132;28;20451;-83
2022/07/24 00:51:56;;;;;;;10.13;7.22;;;;;;;20.18;59.25;98352.31;4962708;28;20409;-83
2022/07/24 00:54:24;;;;;;;11.60;7.80;;;;;;;20.18;59.25;98337.72;4995144;28;20426;-83
2022/07/24 00:56:54;;;;;;;13.43;7.50;;;;;;;20.25;58.67;98346.97;5004769;28;20464;-83
2022/07/24 00:59:24;;;;;;;10.63;7.60;;;;;;;20.18;59.67;98346.81;5028736;28;20456;-84
2022/07/24 01:01:53;;;;;;;10.82;7.20;;;;;;;20.18;59.14;98352.31;5019983;28;20492;-83
2022/07/24 01:04:22;;;;;;;11.05;7.53;;;;;;;20.17;59.49;98347.97;5011180;28;20405;-83
2022/07/24 01:06:50;;;;;;;11.48;7.57;;;;;;;20.15;59.24;98347.53;5006969;28;20402;-83
2022/07/24 01:09:19;;;;;;;12.15;7.78;;;;;;;20.23;58.70;98349.25;5020186;28;20404;-83
2022/07/24 01:11:47;;;;;;;10.52;7.50;;;;;;;20.15;59.33;98348.34;4991568;28;20797;-83
2022/07/24 01:14:16;;;;;;;12.83;8.00;;;;;;;20.19;59.34;98353.13;5013803;28;20411;-83
2022/07/24 01:16:46;;;;;;;13.07;7.80;;;;;;;20.29;58.61;98355.28;5025599;28;20401;-83
2022/07/24 01:19:15;;;;;;;11.05;7.05;;;;;;;20.18;58.73;98341.28;5005777;28;20419;-83
2022/07/24 01:21:52;;;;;;;10.77;7.32;;;;;;;20.28;58.68;98346.22;5018785;28;20439;-83
2022/07/24 01:24:21;;;;;;;11.90;7.35;;;;;;;20.17;59.40;98347.16;5021769;28;20415;-83
2022/07/24 01:26:50;;;;;;;11.95;7.50;;;;;;;20.05;59.53;98342.59;5011345;28;20422;-83
2022/07/24 01:29:18;;;;;;;11.37;7.43;;;;;;;19.96;59.96;98344.78;5027590;28;20916;-83
2022/07/24 01:31:49;;;;;;;11.65;7.55;;;;;;;19.97;59.65;98347.16;5008728;28;20416;-83
2022/07/24 01:34:17;;;;;;;11.57;7.85;;;;;;;19.85;59.43;98334.31;5011860;28;20964;-83
2022/07/24 01:36:45;;;;;;;10.53;7.40;;;;;;;19.95;59.67;98343.97;5014727;28;20428;-83
2022/07/24 01:39:15;;;;;;;11.82;7.55;;;;;;;19.85;60.30;98345.34;4981620;28;20402;-83
2022/07/24 01:41:43;;;;;;;11.52;7.85;;;;;;;19.85;60.07;98345.34;5011290;28;20435;-82
2022/07/24 01:44:12;;;;;;;12.23;7.40;;;;;;;19.89;59.84;98350.94;5024362;28;20410;-83
2022/07/24 01:46:40;;;;;;;12.18;7.72;;;;;;;19.94;59.66;98352.63;5023512;28;20413;-82
2022/07/24 01:49:10;;;;;;;8.75;7.10;;;;;;;19.88;59.77;98355.66;5012867;28;20414;-83
2022/07/24 01:51:38;;;;;;;10.65;7.53;;;;;;;19.92;59.97;98352.16;5016378;28;20422;-82
2022/07/24 01:54:07;;;;;;;12.75;7.40;;;;;;;19.78;60.13;98350.72;5025259;28;20415;-82
2022/07/24 01:56:36;;;;;;;10.18;7.03;;;;;;;19.80;60.19;98345.63;5009899;28;20950;-82
2022/07/24 01:59:05;;;;;;;10.93;7.03;;;;;;;19.86;60.01;98348.91;5019530;28;20465;-82
2022/07/24 02:01:36;;;;;;;11.27;7.65;;;;;;;19.71;60.46;98336.81;5011745;28;20428;-82
2022/07/24 02:04:05;;;;;;;9.48;7.10;;;;;;;19.75;59.99;98351.44;5024144;28;20412;-82
2022/07/24 02:06:33;;;;;;;10.85;7.40;;;;;;;19.70;60.76;98343.44;5009027;28;20422;-82
2022/07/24 02:09:01;;;;;;;10.65;7.38;;;;;;;19.73;60.37;98345.50;5016634;28;20430;-83
2022/07/24 02:11:30;;;;;;;10.67;7.33;;;;;;;19.87;60.11;98347.78;5018528;28;20885;-82
2022/07/24 02:14:00;;;;;;;10.05;7.53;;;;;;;19.85;59.87;98344.56;5013950;28;20431;-82
2022/07/24 02:16:28;;;;;;;12.30;7.85;;;;;;;19.80;60.17;98350.34;5011881;28;20407;-86
2022/07/24 02:18:57;;;;;;;12.68;7.63;;;;;;;19.81;60.37;98350.00;5013491;28;20413;-86
2022/07/24 02:21:25;;;;;;;10.60;7.80;;;;;;;19.78;60.16;98339.69;5010847;28;20431;-85
2022/07/24 02:23:53;;;;;;;12.27;7.88;;;;;;;19.87;59.87;98345.81;5017064;28;20445;-82
2022/07/24 02:26:21;;;;;;;12.65;7.28;;;;;;;19.76;60.43;98346.72;5016513;28;21182;-82
2022/07/24 02:28:50;;;;;;;11.48;7.80;;;;;;;19.68;60.24;98345.78;5030018;28;20415;-83
2022/07/24 02:31:22;;;;;;;11.00;7.93;;;;;;;19.71;60.03;98345.06;5023231;28;20418;-82
2022/07/24 02:33:51;;;;;;;10.15;7.35;;;;;;;19.68;60.51;98348.53;5027125;28;20436;-82
2022/07/24 02:36:20;;;;;;;10.30;7.53;;;;;;;19.57;60.90;98345.50;5029972;28;20478;-82
2022/07/24 02:38:48;;;;;;;10.40;7.57;;;;;;;19.66;60.62;98344.56;5021107;28;20422;-82
2022/07/24 02:41:17;;;;;;;11.55;7.20;;;;;;;19.60;60.94;98344.00;5008953;28;20417;-82
2022/07/24 02:43:45;;;;;;;10.93;8.02;;;;;;;19.64;60.87;98342.13;5013631;28;20429;-82
2022/07/24 02:46:13;;;;;;;10.60;7.90;;;;;;;19.61;61.21;98340.91;5008679;28;20808;-83
2022/07/24 02:48:43;;;;;;;10.90;7.75;;;;;;;19.58;60.60;98344.34;5021315;28;20408;-82
2022/07/24 02:51:12;;;;;;;10.80;7.57;;;;;;;19.56;61.12;98351.41;5016261;28;20415;-83
2022/07/24 02:53:40;;;;;;;11.20;7.67;;;;;;;19.41;61.71;98353.03;5021259;28;20900;-82
2022/07/24 02:56:08;;;;;;;13.00;7.75;;;;;;;19.51;60.76;98346.97;5025022;28;20431;-82
2022/07/24 02:58:37;;;;;;;11.07;7.75;;;;;;;19.53;61.00;98354.84;5013010;28;20415;-82
2022/07/24 03:01:11;;;;;;;11.50;8.00;;;;;;;19.43;61.55;98352.66;5026575;28;20427;-83
2022/07/24 03:03:39;;;;;;;10.68;7.75;;;;;;;19.28;62.28;98359.78;4973897;28;20786;-83
2022/07/24 03:06:10;;;;;;;11.10;7.70;;;;;;;19.28;61.51;98357.84;4997459;28;20409;-83
2022/07/24 03:08:38;;;;;;;11.37;8.00;;;;;;;19.30;61.76;98355.53;5023141;28;20418;-82
2022/07/24 03:11:09;;;;;;;10.80;7.60;;;;;;;19.30;61.88;98361.03;5019263;28;20409;-84
2022/07/24 03:13:38;;;;;;;11.43;8.00;;;;;;;19.27;61.82;98361.75;5003791;28;20939;-84
2022/07/24 03:16:10;;;;;;;11.95;7.65;;;;;;;19.28;61.76;98359.78;4998615;28;20418;-84
2022/07/24 03:18:40;;;;;;;12.02;7.93;;;;;;;19.17;62.12;98348.50;5022522;28;20906;-84
2022/07/24 03:21:10;;;;;;;12.10;8.00;;;;;;;19.25;61.82;98353.06;5018370;28;20414;-84
2022/07/24 03:23:59;;;;;;;11.73;7.53;;;;;;;19.25;62.08;98355.00;5014340;28;20427;-84
2022/07/24 03:26:27;;;;;;;11.23;7.97;;;;;;;19.24;61.99;98345.94;4989304;28;20420;-84
2022/07/24 03:31:49;;;;;;;11.88;7.90;;;;;;;19.27;62.07;98352.69;4998521;28;20452;-82
2022/07/24 03:34:18;;;;;;;12.57;8.17;;;;;;;19.23;62.15;98346.28;5013437;28;20431;-82
2022/07/24 03:36:48;;;;;;;11.55;8.00;;;;;;;19.15;62.54;98361.06;5013469;28;20895;-83
2022/07/24 03:39:17;;;;;;;12.85;8.05;;;;;;;19.03;62.78;98349.00;5009026;28;20407;-82
2022/07/24 03:41:45;;;;;;;13.82;8.20;;;;;;;19.10;62.41;98353.88;5003440;28;20429;-84
2022/07/24 03:44:14;;;;;;;12.00;8.02;;;;;;;19.13;62.20;98352.38;4988053;28;20428;-84
2022/07/24 03:46:43;;;;;;;11.40;8.02;;;;;;;19.12;62.61;98362.56;5003831;28;20895;-83
2022/07/24 03:49:11;;;;;;;12.55;8.10;;;;;;;18.97;62.73;98355.13;4991611;28;20439;-84
2022/07/24 03:51:40;;;;;;;11.02;8.02;;;;;;;19.13;61.86;98357.88;5005464;28;20387;-84
2022/07/24 03:54:10;;;;;;;11.25;7.70;;;;;;;18.98;62.68;98349.25;5003464;28;20493;-84
2022/07/24 03:56:38;;;;;;;13.48;8.05;;;;;;;19.01;62.28;98351.28;5010079;28;20433;-87
2022/07/24 03:59:06;;;;;;;12.18;8.10;;;;;;;19.05;62.16;98351.38;5012667;28;20416;-85
2022/07/24 04:01:35;;;;;;;13.10;8.02;;;;;;;19.10;62.19;98351.91;5015511;28;20423;-85
2022/07/24 04:04:04;;;;;;;10.88;8.13;;;;;;;18.96;63.05;98354.34;5001205;28;20916;-85
2022/07/24 04:06:33;;;;;;;10.90;7.97;;;;;;;18.99;62.43;98356.34;5009272;28;21111;-84
2022/07/24 04:09:02;;;;;;;11.73;7.67;;;;;;;19.01;62.36;98358.75;5010773;28;20415;-84
2022/07/24 04:11:32;;;;;;;11.73;8.15;;;;;;;19.06;62.16;98364.00;5015254;28;20419;-85
2022/07/24 04:14:01;;;;;;;11.67;8.03;;;;;;;19.07;62.30;98365.59;5010494;28;20427;-84
2022/07/24 04:16:29;;;;;;;12.00;8.40;;;;;;;18.98;62.21;98359.47;5003527;28;20412;-84
2022/07/24 04:19:24;;;;;;;12.70;8.60;;;;;;;18.98;62.65;98365.78;5012013;28;20420;-83
2022/07/24 04:22:17;;;;;;;13.33;8.30;;;;;;;18.95;62.75;98368.44;5013230;28;20452;-85
2022/07/24 04:27:46;;;;;;;13.70;8.43;;;;;;;18.95;63.05;98374.75;5019246;28;20792;-82
2022/07/24 04:30:15;;;;;;;11.50;8.18;;;;;;;18.95;62.80;98371.97;5010280;28;20814;-82
2022/07/24 04:32:44;;;;;;;11.73;8.07;;;;;;;19.11;62.27;98377.50;5006047;28;20902;-84
2022/07/24 04:35:12;;;;;;;11.25;8.30;;;;;;;19.19;62.28;98379.28;5009565;28;20420;-84
2022/07/24 04:40:57;;;;;;;11.23;8.10;;;;;;;19.02;62.81;98385.16;4989912;28;20424;-84
2022/07/24 04:43:28;;;;;;;13.80;8.63;;;;;;;19.07;62.22;98376.63;5004995;28;20435;-83
2022/07/24 04:45:58;;;;;;;11.73;8.48;;;;;;;19.18;62.47;98383.19;5008226;28;20416;-81
2022/07/24 04:48:26;;;;;;;12.23;8.47;;;;;;;19.32;61.55;98386.25;5009885;28;20504;-81
2022/07/24 04:50:54;;;;;;;12.10;8.25;;;;;;;19.37;61.95;98387.94;5009275;28;20416;-81
2022/07/24 04:53:23;;;;;;;13.07;8.25;;;;;;;19.38;61.64;98386.78;5011800;28;20416;-82
2022/07/24 04:55:51;;;;;;;12.30;9.30;;;;;;;19.39;61.64;98388.41;5011792;28;20470;-82
2022/07/24 04:58:19;;;;;;;13.00;8.70;;;;;;;19.40;61.51;98387.25;5010862;28;20417;-82
2022/07/24 05:00:48;;;;;;;13.88;9.00;;;;;;;19.51;61.18;98384.75;5011338;28;21549;-82
2022/07/24 05:03:16;;;;;;;12.50;8.23;;;;;;;19.58;60.86;98382.94;5007100;28;20431;-82
2022/07/24 05:05:45;;;;;;;12.27;8.40;;;;;;;19.68;60.69;98386.34;5013928;28;20425;-82
2022/07/24 05:08:13;;;;;;;13.33;8.50;;;;;;;19.67;60.75;98376.47;5013221;28;20913;-83
2022/07/24 05:10:41;;;;;;;12.38;8.60;;;;;;;19.52;61.61;98383.56;5009979;28;20977;-81
2022/07/24 05:13:10;;;;;;;12.07;7.95;;;;;;;19.63;61.11;98392.91;5012638;28;20425;-83
2022/07/24 05:15:38;;;;;;;11.30;8.45;;;;;;;19.64;61.38;98394.50;5010562;28;20786;-82
2022/07/24 05:18:08;;;;;;;12.48;8.40;;;;;;;19.63;60.93;98395.66;5015634;28;20431;-81
2022/07/24 05:20:36;;;;;;;13.40;8.88;;;;;;;19.71;60.68;98389.19;5001642;28;20414;-81
2022/07/24 05:23:05;;;;;;;13.07;8.63;;;;;;;19.79;61.43;98385.41;5010316;28;20421;-82
2022/07/24 05:25:38;;;;;;;12.77;8.27;;;;;;;19.75;60.91;98384.53;5011075;28;20436;-83
2022/07/24 05:28:07;;;;;;;13.18;9.20;;;;;;;19.67;61.28;98382.78;5004224;28;20903;-82
2022/07/24 05:31:00;;;;;;;13.10;8.90;;;;;;;19.88;60.87;98388.75;4976446;28;20424;-81
2022/07/24 05:33:36;;;;;;;11.32;8.55;;;;;;;19.98;60.57;98392.13;5009407;28;20435;-81
2022/07/24 05:36:08;;;;;;;12.07;8.18;;;;;;;20.08;60.22;98388.75;4992277;28;20416;-82
2022/07/24 05:38:40;;;;;;;11.23;8.35;;;;;;;20.06;60.47;98389.13;4987397;28;20455;-81
2022/07/24 05:41:09;;;;;;;13.27;8.20;;;;;;;20.09;60.35;98387.63;5002371;28;20784;-81
2022/07/24 05:43:38;;;;;;;12.23;8.27;;;;;;;20.17;60.51;98388.56;5008356;28;20424;-82
2022/07/24 05:46:09;;;;;;;12.98;8.55;;;;;;;20.22;60.13;98374.47;5005214;28;20413;-81
2022/07/24 05:48:47;;;;;;;13.73;8.70;;;;;;;20.27;59.83;98393.50;5009800;28;20435;-81
2022/07/24 05:51:16;;;;;;;12.23;8.68;;;;;;;20.23;59.98;98393.41;5002731;28;20432;-82
2022/07/24 05:53:44;;;;;;;12.27;8.45;;;;;;;20.31;60.38;98391.59;5005277;28;20937;-81
2022/07/24 05:56:13;;;;;;;12.77;9.02;;;;;;;20.38;60.16;98384.25;5002199;28;20428;-82
2022/07/24 05:58:41;;;;;;;13.50;8.70;;;;;;;20.47;60.14;98392.34;5003342;28;20406;-82
2022/07/24 06:01:09;;;;;;;11.45;8.50;;;;;;;20.51;59.57;98397.94;5010849;28;20443;-83
2022/07/24 06:03:38;;;;;;;12.70;8.40;;;;;;;20.53;59.81;98392.84;5010560;28;20412;-83
2022/07/24 06:06:10;;;;;;;12.77;9.00;;;;;;;20.57;60.05;98402.00;5006831;28;20404;-84
2022/07/24 06:08:40;;;;;;;11.80;8.20;;;;;;;20.64;59.79;98402.13;5012471;28;20929;-85
2022/07/24 06:11:09;;;;;;;11.90;8.38;;;;;;;20.65;59.77;98401.75;5014134;28;20419;-83
2022/07/24 06:13:37;;;;;;;13.55;8.65;;;;;;;20.69;60.11;98398.28;5011839;28;20428;-85
2022/07/24 06:16:10;;;;;;;12.32;8.57;;;;;;;20.80;59.48;98397.28;5009672;28;20424;-88
2022/07/24 06:18:38;;;;;;;12.23;8.68;;;;;;;20.89;59.25;98391.53;4981383;28;20400;-91
2022/07/24 06:21:11;;;;;;;12.67;8.30;;;;;;;21.06;59.03;98391.03;4977727;28;20757;-83
2022/07/24 06:23:40;;;;;;;12.83;8.57;;;;;;;21.15;58.80;98390.81;5009006;28;20431;-77
2022/07/24 06:26:08;;;;;;;12.07;8.48;;;;;;;21.13;59.05;98380.09;5007494;28;20431;-79
2022/07/24 06:28:39;;;;;;;11.57;8.43;;;;;;;21.29;59.14;98390.22;4993253;28;20908;-79
2022/07/24 06:31:08;;;;;;;12.95;8.55;;;;;;;21.35;58.76;98386.00;5015433;28;20423;-80
2022/07/24 06:33:44;;;;;;;13.18;8.85;;;;;;;21.47;58.65;98393.31;4997618;28;20432;-79
2022/07/24 06:36:13;;;;;;;12.23;8.93;;;;;;;21.47;58.48;98387.78;5007955;28;20426;-79
2022/07/24 06:38:42;;;;;;;12.90;8.73;;;;;;;21.62;58.04;98392.34;5009745;28;20507;-81
2022/07/24 06:41:11;;;;;;;12.40;8.70;;;;;;;21.67;57.80;98381.75;5011301;28;20419;-81
2022/07/24 06:43:39;;;;;;;11.02;8.35;;;;;;;21.77;57.72;98391.38;5013398;28;20470;-80
2022/07/24 06:46:11;;;;;;;12.17;8.47;;;;;;;21.84;57.40;98391.50;5000493;28;20430;-74
2022/07/24 06:48:39;;;;;;;11.55;8.25;;;;;;;21.91;57.31;98388.00;5010798;28;20427;-92
2022/07/24 06:51:08;;;;;;;12.52;8.55;;;;;;;21.91;56.94;98380.50;4982544;28;20405;-84
2022/07/24 06:53:40;;;;;;;11.05;8.27;;;;;;;21.95;56.92;98381.34;4982253;28;20988;-84
2022/07/24 06:56:32;;;;;;;12.02;8.40;;;;;;;22.00;57.26;98387.72;5004712;28;20425;-83
2022/07/24 06:59:00;;;;;;;11.43;8.47;;;;;;;22.03;57.08;98382.25;5008768;28;20432;-84
2022/07/24 07:01:29;;;;;;;11.45;8.13;;;;;;;22.01;56.77;98384.59;5007113;28;21036;-83
2022/07/24 07:03:58;;;;;;;11.95;8.80;;;;;;;22.11;56.85;98385.94;5009124;28;20424;-84
2022/07/24 07:06:26;;;;;;;13.63;8.55;;;;;;;22.15;56.79;98390.31;5008990;28;20432;-84
2022/07/24 07:08:56;;;;;;;13.00;8.50;;;;;;;22.19;56.35;98387.59;5011178;28;20420;-84
2022/07/24 07:11:24;;;;;;;13.18;8.10;;;;;;;22.24;56.45;98398.34;5009042;28;20462;-83
2022/07/24 07:13:56;;;;;;;11.57;8.65;;;;;;;22.23;56.13;98392.00;5005986;28;20421;-84
2022/07/24 07:16:26;;;;;;;12.50;8.10;;;;;;;22.29;56.22;98389.72;5009233;28;20422;-83
2022/07/24 07:18:56;;;;;;;13.63;9.07;;;;;;;22.37;55.93;98391.41;5002674;28;20798;-85
2022/07/24 07:21:24;;;;;;;13.07;8.38;;;;;;;22.53;55.73;98393.94;4992974;28;20470;-78
2022/07/24 07:23:53;;;;;;;11.55;8.35;;;;;;;22.52;55.42;98391.53;5012764;28;20416;-77
2022/07/24 07:26:23;;;;;;;12.90;9.02;;;;;;;22.53;55.30;98393.13;5018636;28;20798;-77
2022/07/24 07:28:51;;;;;;;12.95;8.23;;;;;;;22.68;55.17;98397.66;5011176;28;20423;-82
2022/07/24 07:31:19;;;;;;;11.38;8.50;;;;;;;22.79;55.16;98400.53;5006230;28;20431;-78
2022/07/24 07:33:48;;;;;;;12.27;8.57;;;;;;;22.88;55.01;98399.06;5011993;28;20826;-78
2022/07/24 07:36:16;;;;;;;11.60;8.63;;;;;;;22.90;54.68;98395.91;5007776;28;20432;-79
2022/07/24 07:38:45;;;;;;;12.95;8.55;;;;;;;22.98;54.37;98392.03;5011052;28;20498;-80
2022/07/24 07:41:13;;;;;;;13.30;9.20;;;;;;;23.07;54.47;98395.31;5007941;28;20914;-79
2022/07/24 07:43:43;;;;;;;13.80;8.70;;;;;;;23.11;54.27;98395.31;5013462;28;20423;-81
2022/07/24 07:46:12;;;;;;;12.03;8.03;;;;;;;23.28;54.23;98394.69;5012862;28;20445;-80
2022/07/24 07:48:43;;;;;;;11.55;8.20;;;;;;;23.36;53.50;98395.53;5012899;28;20447;-79
2022/07/24 07:51:12;;;;;;;11.23;8.18;;;;;;;23.46;53.77;98394.81;5015201;28;20453;-80
2022/07/24 07:53:40;;;;;;;11.85;8.80;;;;;;;23.39;53.10;98384.47;5017730;28;20523;-81
2022/07/24 07:56:11;;;;;;;11.70;8.35;;;;;;;23.39;53.64;98384.47;5023185;28;20515;-80
2022/07/24 07:58:39;;;;;;;12.32;8.57;;;;;;;23.52;53.32;98387.72;5014860;28;20425;-80
2022/07/24 08:01:09;;;;;;;11.93;8.15;;;;;;;23.65;53.50;98386.28;5030771;28;20515;-82
2022/07/24 08:03:40;;;;;;;12.27;8.20;;;;;;;23.72;53.54;98391.06;5015371;28;20435;-80
2022/07/24 08:06:08;;;;;;;10.27;8.15;;;;;;;23.82;52.83;98395.09;5014104;28;20435;-78
2022/07/24 08:08:42;;;;;;;11.18;7.47;;;;;;;23.86;52.24;98390.34;5016684;28;20425;-80
2022/07/24 08:11:10;;;;;;;11.80;8.57;;;;;;;23.97;51.90;98388.41;5011239;28;20435;-78
2022/07/24 08:13:39;;;;;;;12.77;8.30;;;;;;;24.19;51.80;98398.44;5016223;28;20401;-78
2022/07/24 08:16:11;;;;;;;11.23;8.13;;;;;;;24.17;51.28;98394.47;5015207;28;20431;-84
2022/07/24 08:18:40;;;;;;;11.73;8.63;;;;;;;24.12;50.85;98390.06;5015091;28;20424;-79
2022/07/24 08:21:08;;;;;;;11.40;8.07;;;;;;;24.17;51.62;98391.69;5007402;28;20441;-78
2022/07/24 08:23:40;;;;;;;10.55;7.90;;;;;;;24.25;50.96;98391.34;5006924;28;20457;-83
2022/07/24 08:26:08;;;;;;;11.80;7.72;;;;;;;24.24;50.25;98386.19;5008651;28;20433;-85
2022/07/24 08:28:39;;;;;;;12.05;8.32;;;;;;;24.28;50.31;98371.09;5003066;28;20404;-83
2022/07/24 08:31:08;;;;;;;10.10;7.72;;;;;;;24.45;50.80;98380.72;5013840;28;20427;-78
2022/07/24 08:33:40;;;;;;;11.55;8.05;;;;;;;24.60;50.40;98372.41;5012641;28;20435;-83
2022/07/24 08:36:09;;;;;;;11.20;8.05;;;;;;;24.72;50.60;98369.28;5022738;28;20474;-81
2022/07/24 08:38:40;;;;;;;10.15;7.47;;;;;;;24.89;49.86;98381.63;5017266;28;20420;-81
2022/07/24 08:41:09;;;;;;;11.53;7.53;;;;;;;24.87;49.40;98376.44;5004013;28;20426;-81
2022/07/24 08:43:37;;;;;;;10.60;7.57;;;;;;;24.93;49.69;98374.06;5003389;28;20431;-81
2022/07/24 08:46:10;;;;;;;10.13;7.22;;;;;;;24.99;49.62;98378.84;5017841;28;20772;-81
2022/07/24 08:48:44;;;;;;;10.98;7.95;;;;;;;25.05;48.88;98374.47;5008436;28;20916;-82
2022/07/24 08:51:14;;;;;;;9.23;7.10;;;;;;;25.13;48.19;98380.06;5005779;28;20429;-82
2022/07/24 08:53:45;;;;;;;10.93;7.30;;;;;;;25.08;47.81;98379.25;5015320;28;20419;-89
2022/07/24 08:56:13;;;;;;;10.43;7.20;;;;;;;25.11;46.47;98374.91;4991838;28;20806;-83
2022/07/24 08:58:41;;;;;;;8.90;6.72;;;;;;;25.15;47.65;98374.91;4981030;28;20427;-87
2022/07/24 09:01:10;;;;;;;9.40;7.13;;;;;;;25.08;47.22;98375.69;5004237;28;20425;-83
2022/07/24 09:03:40;;;;;;;11.75;7.63;;;;;;;25.22;47.09;98372.91;5005270;28;20462;-85
2022/07/24 09:06:12;;;;;;;10.10;7.18;;;;;;;25.27;45.46;98366.97;5000773;28;20437;-84
2022/07/24 09:08:40;;;;;;;10.50;6.78;;;;;;;25.23;44.11;98365.38;5004981;28;20434;-84
2022/07/24 09:11:10;;;;;;;9.77;6.50;;;;;;;25.23;43.72;98368.16;5021253;28;20456;-85
2022/07/24 09:16:25;;;;;;;8.97;6.43;;;;;;;25.29;44.59;98352.66;5007975;28;20429;-85
2022/07/24 09:19:04;;;;;;;9.93;7.00;;;;;;;25.46;44.78;98362.16;5005741;28;20926;-84
2022/07/24 09:21:40;;;;;;;8.23;5.90;;;;;;;25.56;44.12;98353.78;5018233;28;20436;-85
2022/07/24 09:24:13;;;;;;;8.48;6.05;;;;;;;25.60;43.48;98349.03;5006243;28;20418;-86
2022/07/24 09:26:46;;;;;;;8.50;6.10;;;;;;;25.67;43.95;98350.19;5004755;28;20425;-84
2022/07/24 09:29:16;;;;;;;7.57;5.90;;;;;;;25.67;43.68;98348.19;5022481;28;20410;-84
2022/07/24 09:31:53;;;;;;;10.20;6.10;;;;;;;25.82;43.34;98357.34;5005421;28;20432;-85
2022/07/24 09:34:21;;;;;;;8.18;5.82;;;;;;;25.68;39.99;98352.59;5002488;28;20460;-84
2022/07/24 09:36:59;;;;;;;7.93;5.50;;;;;;;25.73;40.29;98360.53;5002160;28;20894;-84
2022/07/24 09:39:33;;;;;;;8.57;5.90;;;;;;;25.71;41.59;98356.56;5008560;28;20422;-84
2022/07/24 09:42:04;;;;;;;8.82;5.97;;;;;;;25.68;41.75;98357.38;4990793;28;20895;-84
2022/07/24 09:44:32;;;;;;;9.27;5.80;;;;;;;25.77;41.42;98354.97;4999485;28;20469;-84
2022/07/24 09:47:05;;;;;;;10.77;5.95;;;;;;;25.80;40.83;98343.84;5015079;28;20478;-84
2022/07/24 09:49:35;;;;;;;10.80;5.95;;;;;;;25.90;40.48;98347.78;5019284;28;20578;-84
2022/07/24 09:52:14;;;;;;;9.15;6.00;;;;;;;25.95;41.22;98350.16;5016759;28;20497;-84
2022/07/24 09:54:43;;;;;;;8.68;6.50;;;;;;;25.94;40.91;98334.66;5015102;28;20434;-83
2022/07/24 09:57:20;;;;;;;7.47;5.95;;;;;;;26.08;40.38;98345.72;5021864;28;20481;-84
2022/07/24 09:59:51;;;;;;;8.63;5.65;;;;;;;26.33;39.63;98333.69;5025326;28;20500;-83
2022/07/24 10:02:28;;;;;;;9.27;5.65;;;;;;;26.39;39.14;98332.84;5012735;28;20420;-88
2022/07/24 10:04:57;;;;;;;10.65;6.22;;;;;;;26.37;38.46;98335.25;5010051;28;20444;-86
2022/07/24 10:07:29;;;;;;;8.38;5.95;;;;;;;26.16;40.43;98342.94;4998640;28;20430;-84
2022/07/24 10:09:59;;;;;;;8.10;5.37;;;;;;;26.26;38.42;98334.53;5002359;28;20446;-84
2022/07/24 10:12:30;;;;;;;7.90;5.70;;;;;;;26.38;39.27;98333.25;5003870;28;20425;-85
2022/07/24 10:15:00;;;;;;;9.18;5.70;;;;;;;26.60;38.99;98339.53;4984147;28;20429;-85
2022/07/24 10:17:35;;;;;;;7.97;5.75;;;;;;;26.74;38.11;98338.63;5010666;28;20926;-84
2022/07/24 10:20:09;;;;;;;7.90;5.80;;;;;;;26.77;38.28;98335.03;5015100;28;20442;-83
2022/07/24 10:23:02;;;;;;;7.23;5.53;;;;;;;26.78;37.83;98331.81;4990289;28;20415;-82
2022/07/24 10:25:57;;;;;;;8.18;5.60;;;;;;;26.62;38.48;98326.75;5003089;28;20424;-88
2022/07/24 10:28:42;;;;;;;7.23;5.43;;;;;;;26.80;37.99;98331.44;4988823;28;20447;-88
2022/07/24 10:31:13;;;;;;;8.70;6.27;;;;;;;26.92;37.72;98322.56;5005904;28;20422;-80
2022/07/24 10:34:10;;;;;;;8.10;5.50;;;;;;;26.85;37.03;98317.06;4991828;28;20440;-81
2022/07/24 10:36:45;;;;;;;7.22;5.55;;;;;;;26.78;38.09;98325.47;5002588;28;20423;-81
2022/07/24 10:39:24;;;;;;;8.02;5.57;;;;;;;26.77;37.06;98309.94;5007987;28;20912;-80
2022/07/24 10:42:02;;;;;;;6.82;5.03;;;;;;;26.76;37.02;98308.34;4992297;28;20409;-83
2022/07/24 10:44:31;;;;;;;8.60;5.80;;;;;;;26.79;38.02;98301.94;5006831;28;20493;-78
2022/07/24 10:47:01;;;;;;;8.10;5.63;;;;;;;26.82;37.83;98303.94;5012612;28;20431;-80
2022/07/24 10:49:51;;;;;;;7.33;5.60;;;;;;;26.67;37.69;98306.03;5010709;28;20497;-80
2022/07/24 10:52:25;;;;;;;7.40;5.82;;;;;;;26.58;38.47;98308.47;5011436;28;20454;-80
2022/07/24 10:55:23;;;;;;;8.52;5.63;;;;;;;26.75;38.04;98302.00;5004722;28;20773;-80
2022/07/24 10:58:05;;;;;;;;;;;;;;;26.80;38.81;98311.91;5005993;28;20440;-81
2022/07/24 11:00:35;;;;;;;;;;;;;;;26.85;37.21;98305.91;4997431;28;19921;-80
2022/07/24 11:03:08;;;;;;;;;;;;;;;27.00;38.59;98307.34;5012949;28;19921;-83
2022/07/24 11:05:38;;;;;;;;;;;;;;;27.09;38.45;98304.13;4995920;28;20268;-82
2022/07/24 11:08:24;;;;;;;;;;;;;;;27.14;37.21;98298.91;5015629;28;20272;-82
2022/07/24 11:10:55;;;;;;;;;;;;;;;27.26;37.25;98292.00;5001838;28;19925;-81
2022/07/24 11:13:43;;;;;;;;;;;;;;;27.30;38.65;98295.56;5013853;28;20367;-80
2022/07/24 11:16:18;;;;;;;;;;;;;;;27.30;38.58;98280.81;5013312;28;19928;-82
2022/07/24 11:19:06;;;;;;;;;;;;;;;27.35;38.37;98283.94;5015395;28;19926;-79
2022/07/24 11:21:36;;;;;;;;;;;;;;;27.10;38.96;98289.75;5015260;28;19928;-86
2022/07/24 11:24:17;;;;;;;;;;;;;;;26.93;38.63;98273.97;4996141;28;19921;-84
2022/07/24 11:26:51;;;;;;;;;;;;;;;27.02;37.71;98270.72;5003486;28;19921;-88
2022/07/24 11:29:22;;;;;;;;;;;;;;;26.97;38.02;98260.00;5019918;28;19921;-86
2022/07/24 11:31:51;;;;;;;;;;;;;;;27.10;38.51;98269.47;5013180;28;19927;-85
2022/07/24 11:34:21;;;;;;;;;;;;;;;27.25;37.89;98267.31;5000136;28;19921;-76
2022/07/24 11:36:51;;;;;;;;;;;;;;;27.39;38.20;98256.81;5017453;28;19921;-80
2022/07/24 11:39:46;;;;;;;;;;;;;;;27.23;37.83;98261.38;5013609;28;19921;-82
2022/07/24 11:42:16;;;;;;;;;;;;;;;27.07;38.05;98259.16;4995941;28;19936;-81
2022/07/24 11:45:11;;;;;;;;;;;;;;;27.12;37.82;98253.91;5015785;28;19928;-81
2022/07/24 11:47:40;;;;;;;;;;;;;;;27.26;38.10;98255.75;5015819;28;19921;-81
2022/07/24 11:50:09;;;;;;;;;;;;;;;27.25;38.07;98254.16;5014712;28;19928;-80
2022/07/24 11:52:38;;;;;;;;;;;;;;;27.13;38.68;98255.47;4991019;28;19925;-81
2022/07/24 11:55:07;;;;;;;;;;;;;;;27.01;38.34;98260.75;5010095;28;19921;-82
2022/07/24 11:57:47;;;;;;;;;;;;;;;26.91;38.97;98248.50;5010913;28;19921;-81
2022/07/24 12:00:44;;;;;;;;;;;;;;;26.85;37.63;98247.38;5009307;28;19967;-81
2022/07/24 12:03:15;;;;;;;;;;;;;;;26.82;37.26;98245.38;5015809;28;19967;-80
2022/07/24 12:05:45;;;;;;;;;;;;;;;26.78;37.37;98239.84;5015940;28;20375;-82